Oakwood, California
Current Conditions -  °F | °C
As of 5:47 PM on Thursday 27 Nov 2014 (Local Time) from KCQT Reporting Station
Clear Clear  
Wind Chill: 70°   Ceiling: Unl
Heat Index: 70°   Visibility: 10mi
Dew Point: 41°   Wind: 0mph
Humidity: 35%   Direction: NA
Pressure: 30"   Gusts: NA
Location:  34.0763°N, 118.311°W
Report Text: KCQT 280147Z AUTO 00000KT 10SM CLR 21/05 A3000 RMK AO2 SLP156 T02110050
Loading
Personal Weather Stations






























Interactive Weather Map New forecast layout! Learn more

10-Day Weather Forecast

Advertisements
Track Severe Weather on mobile